Time;durP1;ratioP1;P1;durP2;ratioP2;P2;SDS_P1;SDS_P2;PMS_P1;PMS_P2;Temp;Humidity;BMP_temperature;BMP_pressure;BME280_temperature;BME280_humidity;BME280_pressure;Samples;Min_cycle;Max_cycle;Signal;HPM_P1;HPM_P2
2022/03/25 00:00:25;;;;;;;14.48;10.40;;;14.60;1.00;;;;;;5124697;27;20103;-52
2022/03/25 00:02:51;;;;;;;14.13;11.13;;;14.50;1.00;;;;;;5125849;27;20469;-51
2022/03/25 00:05:16;;;;;;;12.85;10.30;;;14.60;1.00;;;;;;5135643;27;20039;-49
2022/03/25 00:07:42;;;;;;;13.18;10.80;;;14.40;1.00;;;;;;5134028;27;20023;-48
2022/03/25 00:10:08;;;;;;;16.30;12.10;;;14.40;1.00;;;;;;5133357;27;20034;-49
2022/03/25 00:12:34;;;;;;;13.88;10.80;;;14.40;1.00;;;;;;5131705;27;20035;-50
2022/03/25 00:15:00;;;;;;;18.05;11.45;;;14.30;1.00;;;;;;5135996;27;20027;-55
2022/03/25 00:17:26;;;;;;;15.95;11.93;;;14.30;1.00;;;;;;5133973;27;20034;-48
2022/03/25 00:19:52;;;;;;;17.42;11.98;;;14.20;1.00;;;;;;5135259;27;20023;-49
2022/03/25 00:22:18;;;;;;;15.02;11.65;;;14.30;1.00;;;;;;5134526;27;20035;-53
2022/03/25 00:24:43;;;;;;;16.40;12.35;;;14.20;1.00;;;;;;5095998;28;20149;-49
2022/03/25 00:27:09;;;;;;;17.25;12.63;;;14.20;1.00;;;;;;5096174;28;20031;-49
2022/03/25 00:29:36;;;;;;;16.52;11.82;;;14.10;1.00;;;;;;5131826;27;20087;-48
2022/03/25 00:32:02;;;;;;;18.20;12.80;;;14.10;1.00;;;;;;5135037;27;20026;-49
2022/03/25 00:34:28;;;;;;;15.65;12.60;;;14.10;1.00;;;;;;5133863;27;20027;-53
2022/03/25 00:36:54;;;;;;;15.65;12.43;;;14.00;1.00;;;;;;5134852;27;20053;-51
2022/03/25 00:39:20;;;;;;;15.35;12.55;;;14.10;1.00;;;;;;5116310;27;20030;-52
2022/03/25 00:41:47;;;;;;;16.70;13.18;;;14.00;1.00;;;;;;5114267;28;20032;-51
2022/03/25 00:44:13;;;;;;;19.92;13.00;;;14.00;1.00;;;;;;5123503;27;20084;-50
2022/03/25 00:46:39;;;;;;;16.63;12.20;;;13.90;1.00;;;;;;5114255;28;20104;-52
2022/03/25 00:49:05;;;;;;;17.50;13.40;;;13.90;1.00;;;;;;5127212;27;20472;-51
2022/03/25 00:51:31;;;;;;;17.13;13.10;;;13.90;1.00;;;;;;5134742;27;20071;-52
2022/03/25 00:53:57;;;;;;;17.63;12.70;;;13.90;1.00;;;;;;5133720;27;20379;-54
2022/03/25 00:56:24;;;;;;;17.00;13.15;;;13.90;1.00;;;;;;5134695;27;20019;-54
2022/03/25 00:58:50;;;;;;;19.98;13.10;;;13.90;1.00;;;;;;5133056;27;20601;-49
2022/03/25 01:01:16;;;;;;;15.15;11.52;;;13.90;1.00;;;;;;5134846;27;20044;-50
2022/03/25 01:03:42;;;;;;;17.67;13.10;;;13.80;1.00;;;;;;5132672;27;20117;-53
2022/03/25 01:06:08;;;;;;;16.58;13.05;;;13.90;1.00;;;;;;5134578;27;20039;-49
2022/03/25 01:08:34;;;;;;;15.68;11.75;;;13.80;1.00;;;;;;5133236;27;20035;-50
2022/03/25 01:11:00;;;;;;;18.85;12.40;;;13.80;1.00;;;;;;5134345;27;20023;-50
2022/03/25 01:13:25;;;;;;;16.85;12.80;;;13.80;1.00;;;;;;5132174;27;20462;-51
2022/03/25 01:15:51;;;;;;;19.10;12.52;;;13.90;1.00;;;;;;5134584;27;20023;-49
2022/03/25 01:18:17;;;;;;;16.85;12.88;;;13.80;1.00;;;;;;5132179;27;20770;-49
2022/03/25 01:20:43;;;;;;;16.02;11.82;;;13.80;1.00;;;;;;5134240;27;20426;-48
2022/03/25 01:23:09;;;;;;;18.10;12.57;;;13.80;1.00;;;;;;5131835;27;20149;-48
2022/03/25 01:25:36;;;;;;;15.40;12.57;;;13.70;1.00;;;;;;5134001;27;20084;-47
2022/03/25 01:28:01;;;;;;;18.00;13.13;;;13.70;1.00;;;;;;5132450;27;20094;-50
2022/03/25 01:30:27;;;;;;;19.55;13.88;;;13.70;1.00;;;;;;5134280;27;20047;-48
2022/03/25 01:32:53;;;;;;;17.25;14.40;;;13.70;1.00;;;;;;5124197;27;20377;-48
2022/03/25 01:35:24;;;;;;;20.65;15.02;;;13.60;1.00;;;;;;5134223;27;20019;-49
2022/03/25 01:37:50;;;;;;;21.02;14.63;;;13.60;1.00;;;;;;5131385;27;20477;-50
2022/03/25 01:40:16;;;;;;;23.65;15.48;;;13.60;1.00;;;;;;5133546;27;20035;-47
2022/03/25 01:42:41;;;;;;;26.35;14.88;;;13.60;1.00;;;;;;5129334;27;20024;-50
2022/03/25 01:45:11;;;;;;;18.35;14.18;;;13.60;1.00;;;;;;5113169;28;20059;-49
2022/03/25 01:47:38;;;;;;;18.23;13.93;;;13.60;1.00;;;;;;5122306;27;20034;-49
2022/03/25 01:50:04;;;;;;;17.08;14.05;;;13.60;1.00;;;;;;5134048;27;20023;-49
2022/03/25 01:52:30;;;;;;;16.35;13.13;;;13.60;1.00;;;;;;5132063;27;20054;-49
2022/03/25 01:55:17;;;;;;;18.85;13.80;;;13.60;1.00;;;;;;5133598;27;20023;-47
2022/03/25 01:57:44;;;;;;;21.90;13.98;;;13.50;1.00;;;;;;5132018;27;20028;-49
2022/03/25 02:00:13;;;;;;;20.40;14.63;;;13.50;1.00;;;;;;5125134;27;20024;-49
2022/03/25 02:02:39;;;;;;;19.65;14.20;;;13.50;1.00;;;;;;5122353;27;20023;-50
2022/03/25 02:05:05;;;;;;;19.98;14.85;;;13.50;1.00;;;;;;5133643;28;20460;-48
2022/03/25 02:07:31;;;;;;;19.88;13.18;;;13.40;1.00;;;;;;5115472;28;20032;-49
2022/03/25 02:09:59;;;;;;;16.50;12.65;;;13.50;1.00;;;;;;5132696;28;20072;-49
2022/03/25 02:12:25;;;;;;;18.83;13.27;;;13.40;1.00;;;;;;5131763;28;20023;-50
2022/03/25 02:14:51;;;;;;;16.92;13.18;;;13.40;1.00;;;;;;5112327;28;20095;-48
2022/03/25 02:17:17;;;;;;;24.42;14.82;;;13.30;1.00;;;;;;5112227;28;20115;-49
2022/03/25 02:19:42;;;;;;;18.15;14.63;;;13.40;1.00;;;;;;5131272;28;20114;-48
2022/03/25 02:22:08;;;;;;;19.90;12.90;;;13.40;1.00;;;;;;5132919;28;20064;-48
2022/03/25 02:24:34;;;;;;;21.02;14.10;;;13.30;1.00;;;;;;5114598;28;20504;-51
2022/03/25 02:27:02;;;;;;;20.35;14.48;;;13.30;1.00;;;;;;5121899;28;20059;-48
2022/03/25 02:29:28;;;;;;;19.45;13.55;;;13.30;1.00;;;;;;5129676;27;20030;-48
2022/03/25 02:31:53;;;;;;;19.17;14.10;;;13.30;1.00;;;;;;5116130;28;20020;-49
2022/03/25 02:34:19;;;;;;;17.38;13.88;;;13.30;1.00;;;;;;5134729;27;20027;-48
2022/03/25 02:36:46;;;;;;;19.00;14.10;;;13.30;1.00;;;;;;5112521;27;20047;-48
2022/03/25 02:39:14;;;;;;;25.45;14.82;;;13.20;1.00;;;;;;5135462;27;20031;-48
2022/03/25 02:41:40;;;;;;;19.58;13.20;;;13.20;1.00;;;;;;5120414;27;20028;-51
2022/03/25 02:44:06;;;;;;;24.63;14.35;;;13.20;1.00;;;;;;5097303;28;20502;-52
2022/03/25 02:46:32;;;;;;;18.90;14.00;;;13.10;1.00;;;;;;5121704;27;20070;-48
2022/03/25 02:48:58;;;;;;;24.80;15.40;;;13.10;1.00;;;;;;5135185;27;20407;-47
2022/03/25 02:51:24;;;;;;;18.45;13.75;;;13.10;1.00;;;;;;5118299;27;20111;-49
2022/03/25 02:53:50;;;;;;;20.42;14.40;;;13.10;1.00;;;;;;5135142;27;20073;-47
2022/03/25 02:56:17;;;;;;;22.17;15.35;;;13.10;1.00;;;;;;5136397;27;20536;-51
2022/03/25 02:58:44;;;;;;;17.90;14.68;;;13.10;1.00;;;;;;5117094;27;20019;-47
2022/03/25 03:01:09;;;;;;;20.98;14.60;;;13.10;1.00;;;;;;5135965;27;20024;-48
2022/03/25 03:03:36;;;;;;;21.23;14.82;;;13.00;1.00;;;;;;5126277;27;20050;-48
2022/03/25 03:06:01;;;;;;;20.63;15.23;;;13.00;1.00;;;;;;5135778;27;20400;-49
2022/03/25 03:08:28;;;;;;;22.95;14.93;;;13.00;1.00;;;;;;5110580;28;20019;-49
2022/03/25 03:10:54;;;;;;;21.08;14.35;;;13.00;1.00;;;;;;5116399;27;20024;-52
2022/03/25 03:13:20;;;;;;;18.35;14.27;;;12.90;1.00;;;;;;5131605;27;20023;-50
2022/03/25 03:15:47;;;;;;;19.80;15.80;;;13.00;1.00;;;;;;5136664;27;20023;-49
2022/03/25 03:18:14;;;;;;;19.90;14.55;;;12.90;1.00;;;;;;5134920;27;20015;-49
2022/03/25 03:20:40;;;;;;;22.27;14.50;;;13.00;1.00;;;;;;5136299;27;20048;-48
2022/03/25 03:23:07;;;;;;;22.92;15.02;;;12.90;1.00;;;;;;5135252;27;20110;-49
2022/03/25 03:25:34;;;;;;;19.27;14.23;;;12.90;1.00;;;;;;5118034;27;20055;-51
2022/03/25 03:28:00;;;;;;;24.10;15.85;;;12.90;1.00;;;;;;5134822;27;20046;-47
2022/03/25 03:30:26;;;;;;;17.70;14.27;;;12.80;1.00;;;;;;5136306;27;20046;-49
2022/03/25 03:32:57;;;;;;;24.52;16.17;;;12.80;1.00;;;;;;5135559;27;20022;-50
2022/03/25 03:35:24;;;;;;;18.48;14.73;;;12.80;1.00;;;;;;5115739;28;20019;-49
2022/03/25 03:37:50;;;;;;;22.17;14.57;;;12.80;1.00;;;;;;5115677;27;20110;-51
2022/03/25 03:40:17;;;;;;;22.23;14.52;;;12.80;1.00;;;;;;5135364;27;20051;-48
2022/03/25 03:42:44;;;;;;;25.42;15.50;;;12.70;1.00;;;;;;5136147;27;20023;-48
2022/03/25 03:45:10;;;;;;;19.85;15.02;;;12.80;1.00;;;;;;5133388;27;20040;-50
2022/03/25 03:47:36;;;;;;;22.00;15.27;;;12.70;1.00;;;;;;5117603;27;20502;-53
2022/03/25 03:50:04;;;;;;;22.00;15.45;;;12.70;1.00;;;;;;5134769;27;20023;-47
2022/03/25 03:52:30;;;;;;;18.65;14.50;;;12.60;1.00;;;;;;5136055;27;20027;-49
2022/03/25 03:54:56;;;;;;;22.40;15.70;;;12.60;1.00;;;;;;5118289;27;20114;-48
2022/03/25 03:57:21;;;;;;;22.17;15.07;;;12.60;1.00;;;;;;5114949;27;20484;-51
2022/03/25 03:59:47;;;;;;;22.50;17.13;;;12.50;1.00;;;;;;5124516;27;20105;-50
2022/03/25 04:02:12;;;;;;;22.38;15.13;;;12.50;1.00;;;;;;5115084;27;20056;-49
2022/03/25 04:04:38;;;;;;;23.20;15.32;;;12.50;1.00;;;;;;5128970;27;20063;-48
2022/03/25 04:07:04;;;;;;;18.83;14.20;;;12.50;1.00;;;;;;5135899;27;20051;-49
2022/03/25 04:09:30;;;;;;;21.20;15.48;;;12.50;1.00;;;;;;5134710;27;20024;-49
2022/03/25 04:11:55;;;;;;;23.65;16.13;;;12.50;1.00;;;;;;5135411;27;20023;-49
2022/03/25 04:14:21;;;;;;;21.17;15.13;;;12.50;1.00;;;;;;5115956;27;20054;-48
2022/03/25 04:16:48;;;;;;;21.83;16.10;;;12.50;1.00;;;;;;5135578;27;20020;-49
2022/03/25 04:19:14;;;;;;;22.23;15.20;;;12.40;1.00;;;;;;5134261;27;20576;-48
2022/03/25 04:21:40;;;;;;;20.90;14.98;;;12.40;1.00;;;;;;5135342;27;20068;-50
2022/03/25 04:24:06;;;;;;;23.00;16.05;;;12.40;1.00;;;;;;5134279;27;20031;-50
2022/03/25 04:26:32;;;;;;;20.80;14.75;;;12.40;1.00;;;;;;5124017;27;20047;-49
2022/03/25 04:28:58;;;;;;;22.05;14.98;;;12.30;1.00;;;;;;5129996;27;20130;-50
2022/03/25 04:31:23;;;;;;;20.80;15.35;;;12.30;1.00;;;;;;5116074;27;20116;-49
2022/03/25 04:33:49;;;;;;;19.52;15.68;;;12.30;1.00;;;;;;5110945;28;20051;-48
2022/03/25 04:36:15;;;;;;;25.02;16.52;;;12.30;1.00;;;;;;5114401;28;20039;-49
2022/03/25 04:38:42;;;;;;;24.80;16.38;;;12.30;1.00;;;;;;5119075;27;20110;-47
2022/03/25 04:41:09;;;;;;;22.17;15.07;;;12.30;1.00;;;;;;5129729;27;20016;-48
2022/03/25 04:43:36;;;;;;;20.33;15.52;;;12.30;1.00;;;;;;5116856;27;20095;-48
2022/03/25 04:46:02;;;;;;;20.35;14.88;;;12.30;1.00;;;;;;5133710;27;20042;-50
2022/03/25 04:48:28;;;;;;;23.87;15.37;;;12.30;1.00;;;;;;5115760;27;20027;-49
2022/03/25 04:50:54;;;;;;;22.43;14.87;;;12.30;1.00;;;;;;5134202;27;20027;-50
2022/03/25 04:53:19;;;;;;;24.57;15.90;;;12.30;1.00;;;;;;5131872;27;20034;-50
2022/03/25 04:55:45;;;;;;;20.98;15.27;;;12.30;1.00;;;;;;5114393;28;20483;-52
2022/03/25 04:58:11;;;;;;;26.20;15.20;;;12.20;1.00;;;;;;5130787;27;20487;-50
2022/03/25 05:00:38;;;;;;;19.50;15.23;;;12.20;1.00;;;;;;5133253;27;20031;-50
2022/03/25 05:03:04;;;;;;;19.88;14.63;;;12.20;1.00;;;;;;5134521;27;20032;-50
2022/03/25 05:05:31;;;;;;;22.50;15.87;;;12.20;1.00;;;;;;5123661;27;20031;-50
2022/03/25 05:07:57;;;;;;;26.17;15.87;;;12.10;1.00;;;;;;5113547;28;20065;-50
2022/03/25 05:10:24;;;;;;;21.37;15.83;;;12.20;1.00;;;;;;5120568;27;20023;-48
2022/03/25 05:12:49;;;;;;;20.67;14.83;;;12.10;1.00;;;;;;5134096;27;20019;-49
2022/03/25 05:15:15;;;;;;;20.17;16.05;;;12.10;1.00;;;;;;5133012;27;20348;-49
2022/03/25 05:17:45;;;;;;;22.07;14.90;;;12.10;1.00;;;;;;5134222;27;20027;-48
2022/03/25 05:20:11;;;;;;;22.35;15.55;;;12.20;1.00;;;;;;5132752;27;20571;-48
2022/03/25 05:22:37;;;;;;;21.83;15.33;;;12.10;1.00;;;;;;5134335;27;20054;-51
2022/03/25 05:25:06;;;;;;;26.55;16.08;;;12.20;1.00;;;;;;5111605;27;20059;-51
2022/03/25 05:27:42;;;;;;;24.90;15.73;;;12.10;1.00;;;;;;5113446;27;20030;-51
2022/03/25 05:30:08;;;;;;;25.27;15.90;;;12.20;1.00;;;;;;5116669;27;20029;-49
2022/03/25 05:32:34;;;;;;;21.50;15.67;;;12.20;1.00;;;;;;5133754;27;20083;-49
2022/03/25 05:35:00;;;;;;;25.45;15.27;;;12.10;1.00;;;;;;5132731;27;20027;-49
2022/03/25 05:37:26;;;;;;;24.83;16.17;;;12.20;1.00;;;;;;5133743;27;20046;-50
2022/03/25 05:39:52;;;;;;;23.05;15.85;;;12.30;1.00;;;;;;5132537;27;20034;-52
2022/03/25 05:42:17;;;;;;;23.83;15.75;;;12.20;1.00;;;;;;5133756;27;20475;-51
2022/03/25 05:44:43;;;;;;;22.98;16.15;;;12.20;1.00;;;;;;5132866;27;20034;-48
2022/03/25 05:47:09;;;;;;;25.55;15.77;;;12.20;1.00;;;;;;5133202;27;20035;-48
2022/03/25 05:49:34;;;;;;;25.58;16.02;;;12.10;1.00;;;;;;5133845;27;20019;-54
2022/03/25 05:52:00;;;;;;;27.53;15.83;;;12.20;1.00;;;;;;5132446;27;20387;-53
2022/03/25 05:54:25;;;;;;;27.87;15.67;;;12.20;1.00;;;;;;5131336;27;20102;-50
2022/03/25 05:56:51;;;;;;;23.27;16.17;;;12.30;1.00;;;;;;5132519;27;20106;-49
2022/03/25 05:59:17;;;;;;;27.20;17.03;;;12.30;1.00;;;;;;5133210;27;20531;-47
2022/03/25 06:01:42;;;;;;;26.45;15.73;;;12.40;1.00;;;;;;5132504;27;20037;-52
2022/03/25 06:04:08;;;;;;;25.23;16.13;;;12.40;1.00;;;;;;5133551;27;20037;-49
2022/03/25 06:06:34;;;;;;;28.07;16.73;;;12.40;1.00;;;;;;5132542;27;20128;-50
2022/03/25 06:09:00;;;;;;;29.55;16.00;;;12.40;1.00;;;;;;5124600;28;20476;-51
2022/03/25 06:11:25;;;;;;;23.45;15.35;;;12.50;1.00;;;;;;5124660;28;20039;-54
2022/03/25 06:13:52;;;;;;;23.15;15.13;;;12.40;1.00;;;;;;5133139;28;20015;-54
2022/03/25 06:16:18;;;;;;;27.83;16.75;;;12.50;1.00;;;;;;5123993;28;20163;-54
2022/03/25 06:18:43;;;;;;;24.10;16.90;;;12.50;1.00;;;;;;5112641;28;20430;-48
2022/03/25 06:21:09;;;;;;;25.08;17.08;;;12.40;1.00;;;;;;5117273;28;20114;-48
2022/03/25 06:23:35;;;;;;;26.53;17.90;;;12.50;1.00;;;;;;5128392;28;20127;-52
2022/03/25 06:26:01;;;;;;;28.73;17.00;;;12.50;1.00;;;;;;5131865;28;20092;-51
2022/03/25 06:28:27;;;;;;;24.60;17.50;;;12.50;1.00;;;;;;5133524;28;20031;-51
2022/03/25 06:30:52;;;;;;;25.63;16.57;;;12.50;1.00;;;;;;5118730;28;20035;-52
2022/03/25 06:33:18;;;;;;;26.38;18.20;;;12.50;1.00;;;;;;5094593;28;20024;-54
2022/03/25 06:35:44;;;;;;;27.75;17.60;;;12.50;1.00;;;;;;5118631;28;20039;-49
2022/03/25 06:38:10;;;;;;;31.60;18.07;;;12.50;1.00;;;;;;5133085;28;20027;-49
2022/03/25 06:40:36;;;;;;;36.97;20.27;;;12.50;1.00;;;;;;5131892;28;20391;-48
2022/03/25 06:43:02;;;;;;;34.70;19.48;;;12.60;1.00;;;;;;5116704;28;20027;-49
2022/03/25 06:45:28;;;;;;;33.17;18.58;;;12.60;1.00;;;;;;5115748;28;20138;-48
2022/03/25 06:47:55;;;;;;;30.58;19.00;;;12.60;1.00;;;;;;5114649;28;20500;-48
2022/03/25 06:50:22;;;;;;;31.97;20.13;;;12.60;1.00;;;;;;5109178;28;20113;-48
2022/03/25 06:52:49;;;;;;;30.55;18.75;;;12.70;1.00;;;;;;5111461;28;20023;-51
2022/03/25 06:55:15;;;;;;;30.40;19.47;;;12.70;1.00;;;;;;5131507;28;20075;-50
2022/03/25 06:57:41;;;;;;;31.52;19.65;;;12.70;1.00;;;;;;5133115;28;20027;-48
2022/03/25 07:00:12;;;;;;;30.00;20.83;;;12.70;1.00;;;;;;5130597;28;20022;-48
2022/03/25 07:02:42;;;;;;;28.37;20.83;;;12.80;1.00;;;;;;5133132;28;20049;-53
2022/03/25 07:05:13;;;;;;;27.45;19.63;;;12.80;1.00;;;;;;5128764;28;20046;-50
2022/03/25 07:07:40;;;;;;;28.35;19.50;;;12.80;1.00;;;;;;5132022;28;20027;-51
2022/03/25 07:10:10;;;;;;;28.57;19.33;;;12.80;1.00;;;;;;5131023;28;20027;-49
2022/03/25 07:12:45;;;;;;;28.98;19.92;;;12.80;1.00;;;;;;5132163;28;20038;-50
2022/03/25 07:15:12;;;;;;;29.85;19.52;;;12.70;1.00;;;;;;5125102;27;20023;-49
2022/03/25 07:17:38;;;;;;;30.73;20.27;;;12.80;1.00;;;;;;5135547;27;20015;-49
2022/03/25 07:20:08;;;;;;;27.63;19.43;;;12.90;1.00;;;;;;5127414;27;20039;-48
2022/03/25 07:22:34;;;;;;;26.27;19.05;;;12.90;1.00;;;;;;5115117;28;20034;-52
2022/03/25 07:25:00;;;;;;;25.88;18.85;;;12.90;1.00;;;;;;5119268;27;20031;-49
2022/03/25 07:27:26;;;;;;;23.63;19.02;;;12.90;1.00;;;;;;5134176;27;20039;-48
2022/03/25 07:29:52;;;;;;;27.83;19.55;;;12.90;1.00;;;;;;5133753;27;20038;-54
2022/03/25 07:32:18;;;;;;;24.50;17.98;;;13.00;1.00;;;;;;5134948;27;20034;-50
2022/03/25 07:34:43;;;;;;;22.27;16.73;;;13.00;1.00;;;;;;5134359;27;20027;-51
2022/03/25 07:37:10;;;;;;;26.80;17.60;;;13.10;1.00;;;;;;5115394;28;20046;-50
2022/03/25 07:39:35;;;;;;;29.48;17.83;;;13.10;1.00;;;;;;5115597;28;20205;-52
2022/03/25 07:42:01;;;;;;;24.23;17.13;;;13.10;1.00;;;;;;5115498;27;20123;-49
2022/03/25 07:44:27;;;;;;;27.98;17.98;;;13.20;1.00;;;;;;5115730;28;20038;-49
2022/03/25 07:46:53;;;;;;;26.42;17.17;;;13.20;1.00;;;;;;5132601;27;20048;-49
2022/03/25 07:49:19;;;;;;;24.85;18.08;;;13.30;1.00;;;;;;5136123;27;20027;-53
2022/03/25 07:51:44;;;;;;;26.45;18.58;;;13.20;1.00;;;;;;5117288;27;20032;-53
2022/03/25 07:54:10;;;;;;;27.98;18.48;;;13.30;1.00;;;;;;5125099;27;20046;-50
2022/03/25 07:56:37;;;;;;;23.90;17.23;;;13.30;1.00;;;;;;5133812;27;20037;-48
2022/03/25 07:59:03;;;;;;;24.90;16.95;;;13.30;1.00;;;;;;5134391;27;20422;-50
2022/03/25 08:01:38;;;;;;;24.60;18.08;;;13.40;1.00;;;;;;5131429;27;20118;-49
2022/03/25 08:04:04;;;;;;;80.13;23.33;;;13.40;1.00;;;;;;5134178;27;20424;-49
2022/03/25 08:06:30;;;;;;;36.40;18.23;;;13.50;1.00;;;;;;5133824;27;20130;-53
2022/03/25 08:08:56;;;;;;;34.88;18.35;;;13.50;1.00;;;;;;5135909;27;20023;-53
2022/03/25 08:11:22;;;;;;;31.45;17.65;;;13.60;1.00;;;;;;5134103;27;20055;-51
2022/03/25 08:13:49;;;;;;;30.88;18.20;;;13.70;1.00;;;;;;5134531;27;20098;-48
2022/03/25 08:16:16;;;;;;;24.58;16.42;;;13.70;1.00;;;;;;5134501;27;20386;-51
2022/03/25 08:18:43;;;;;;;23.35;16.17;;;13.70;1.00;;;;;;5135344;27;20506;-49
2022/03/25 08:21:09;;;;;;;21.90;16.58;;;13.70;1.00;;;;;;5133047;27;20027;-49
2022/03/25 08:29:03;;;;;;;20.20;16.30;;;13.80;1.00;;;;;;5134867;27;20076;-49
2022/03/25 08:31:29;;;;;;;24.50;15.40;;;13.90;1.00;;;;;;5132981;27;20122;-51
2022/03/25 08:33:55;;;;;;;18.30;14.88;;;13.90;1.00;;;;;;5134888;27;20027;-49
2022/03/25 08:36:21;;;;;;;26.17;16.42;;;13.90;1.00;;;;;;5132700;27;20039;-48
2022/03/25 08:38:47;;;;;;;24.60;15.60;;;14.00;1.00;;;;;;5134767;27;20426;-48
2022/03/25 08:41:15;;;;;;;19.67;15.07;;;14.00;1.00;;;;;;5130635;27;20023;-49
2022/03/25 08:43:41;;;;;;;21.48;15.52;;;14.20;1.00;;;;;;5114285;28;20103;-49
2022/03/25 08:46:07;;;;;;;19.05;14.73;;;14.20;1.00;;;;;;5123723;27;20458;-48
2022/03/25 08:48:34;;;;;;;21.85;16.10;;;14.20;1.00;;;;;;5134649;27;20471;-49
2022/03/25 08:50:59;;;;;;;20.50;16.05;;;14.30;1.00;;;;;;5133588;27;20110;-50
2022/03/25 08:53:25;;;;;;;19.52;15.27;;;14.30;1.00;;;;;;5133583;27;20051;-48
2022/03/25 08:55:51;;;;;;;22.30;15.52;;;14.40;1.00;;;;;;5132139;27;20023;-48
2022/03/25 08:58:17;;;;;;;30.30;17.08;;;14.40;1.00;;;;;;5115932;27;20062;-50
2022/03/25 09:00:42;;;;;;;22.45;15.95;;;14.40;1.00;;;;;;5132526;27;20023;-49
2022/03/25 09:03:08;;;;;;;21.85;15.98;;;14.50;1.00;;;;;;5134334;27;20023;-49
2022/03/25 09:05:34;;;;;;;27.27;17.52;;;14.50;1.00;;;;;;5131187;27;20052;-51
2022/03/25 09:07:59;;;;;;;21.25;16.77;;;14.60;1.00;;;;;;5132793;27;20121;-50
2022/03/25 09:10:26;;;;;;;20.75;15.45;;;14.70;1.00;;;;;;5132584;27;20118;-48
2022/03/25 09:12:52;;;;;;;21.23;14.40;;;14.80;1.00;;;;;;5134070;27;20038;-49
2022/03/25 09:15:17;;;;;;;15.80;14.02;;;14.90;1.00;;;;;;5113931;27;20023;-49
2022/03/25 09:17:45;;;;;;;17.70;13.40;;;15.00;1.00;;;;;;5134018;27;20065;-50
2022/03/25 09:20:11;;;;;;;19.38;13.35;;;15.00;1.00;;;;;;5132583;27;20041;-52
2022/03/25 09:22:37;;;;;;;19.17;12.15;;;15.00;1.00;;;;;;5134298;27;20163;-50
2022/03/25 09:25:05;;;;;;;14.88;11.23;;;15.20;1.00;;;;;;5133445;27;20023;-49
2022/03/25 09:27:31;;;;;;;16.35;12.10;;;15.30;1.00;;;;;;5133276;27;20106;-47
2022/03/25 09:29:57;;;;;;;12.00;10.68;;;15.30;1.00;;;;;;5130059;27;20035;-52
2022/03/25 09:32:22;;;;;;;14.38;11.75;;;15.40;1.00;;;;;;5131595;27;20031;-51
2022/03/25 09:37:39;;;;;;;15.68;12.00;;;15.50;1.00;;;;;;5132667;27;20134;-52
2022/03/25 09:40:08;;;;;;;19.50;12.45;;;15.60;1.00;;;;;;5112063;27;20030;-50
2022/03/25 09:42:35;;;;;;;13.32;11.30;;;15.70;1.00;;;;;;5129009;27;20024;-50
2022/03/25 09:45:04;;;;;;;15.98;12.20;;;15.80;1.00;;;;;;5113574;27;20079;-49
2022/03/25 09:47:31;;;;;;;14.73;12.10;;;15.80;1.00;;;;;;5133175;27;20079;-51
2022/03/25 09:50:00;;;;;;;15.65;12.00;;;15.80;1.00;;;;;;5112122;27;20027;-50
2022/03/25 09:52:29;;;;;;;16.20;10.82;;;15.90;1.00;;;;;;5129875;27;20031;-50
2022/03/25 09:54:55;;;;;;;12.75;10.68;;;16.00;1.00;;;;;;5112877;27;20027;-50
2022/03/25 09:57:21;;;;;;;14.90;10.80;;;16.10;1.00;;;;;;5113551;28;20027;-53
2022/03/25 09:59:46;;;;;;;13.45;10.25;;;16.20;1.00;;;;;;5130927;27;20695;-49
2022/03/25 10:02:12;;;;;;;15.55;10.52;;;16.20;1.00;;;;;;5133667;27;20084;-51
2022/03/25 10:04:37;;;;;;;15.68;11.43;;;16.20;1.00;;;;;;5131892;27;20023;-48
2022/03/25 10:07:22;;;;;;;13.85;11.38;;;16.20;1.00;;;;;;5113244;28;20421;-52
2022/03/25 10:10:05;;;;;;;12.25;10.95;;;16.40;1.00;;;;;;5122519;28;20027;-50
2022/03/25 10:12:31;;;;;;;15.35;10.80;;;16.40;1.00;;;;;;5134019;28;20468;-50
2022/03/25 10:15:26;;;;;;;15.90;11.32;;;16.50;1.00;;;;;;5132008;28;20031;-49
2022/03/25 10:18:04;;;;;;;15.73;12.32;;;16.50;1.00;;;;;;5132610;28;20629;-48
2022/03/25 10:20:33;;;;;;;14.75;11.18;;;16.70;1.00;;;;;;5132113;28;20047;-51
2022/03/25 10:23:18;;;;;;;12.50;10.40;;;16.90;1.00;;;;;;5113704;28;20094;-53
2022/03/25 10:25:51;;;;;;;15.55;11.10;;;16.80;1.00;;;;;;5131916;28;20035;-48
2022/03/25 10:28:28;;;;;;;16.97;10.87;;;16.90;1.00;;;;;;5131605;28;20500;-51
2022/03/25 10:31:00;;;;;;;11.57;10.23;;;16.80;1.00;;;;;;5117583;28;20281;-48
2022/03/25 10:33:29;;;;;;;12.25;10.30;;;17.00;1.00;;;;;;5114618;28;20024;-49
2022/03/25 10:35:59;;;;;;;16.48;10.82;;;17.00;1.00;;;;;;5129043;28;20077;-48
2022/03/25 10:38:27;;;;;;;19.42;9.82;;;17.00;1.00;;;;;;5127121;27;20034;-49
2022/03/25 10:40:57;;;;;;;11.07;9.57;;;17.10;1.00;;;;;;5115328;28;20032;-49
2022/03/25 10:43:24;;;;;;;17.65;12.18;;;17.30;1.00;;;;;;5128150;28;20499;-49
2022/03/25 10:45:54;;;;;;;12.32;10.90;;;17.40;1.00;;;;;;5104399;28;20035;-49
2022/03/25 10:48:22;;;;;;;13.85;11.23;;;17.60;1.00;;;;;;5127466;28;20071;-47
2022/03/25 10:51:08;;;;;;;12.48;10.95;;;17.70;1.00;;;;;;5130539;27;20031;-50
2022/03/25 10:53:36;;;;;;;13.85;10.80;;;17.60;1.00;;;;;;5128925;27;20019;-48
2022/03/25 10:56:06;;;;;;;14.93;11.38;;;17.80;1.00;;;;;;5127116;27;20383;-48
2022/03/25 10:58:37;;;;;;;17.88;10.65;;;17.80;1.00;;;;;;5120787;27;20023;-47
2022/03/25 11:01:05;;;;;;;17.30;12.02;;;18.00;1.00;;;;;;5115928;27;20434;-50
2022/03/25 11:03:31;;;;;;;15.27;11.05;;;18.10;1.00;;;;;;5123476;27;20525;-47
2022/03/25 11:05:57;;;;;;;13.15;11.85;;;18.10;1.00;;;;;;5127668;27;20043;-46
2022/03/25 11:08:23;;;;;;;13.32;11.73;;;18.10;1.00;;;;;;5136498;27;20050;-46
2022/03/25 11:10:49;;;;;;;14.05;11.43;;;18.20;1.00;;;;;;5134375;27;20030;-47
2022/03/25 11:13:17;;;;;;;18.20;11.10;;;18.30;1.00;;;;;;5136566;27;20033;-48
2022/03/25 11:15:45;;;;;;;14.07;11.55;;;18.30;1.00;;;;;;5134581;27;20046;-47
2022/03/25 11:18:13;;;;;;;15.07;11.20;;;18.50;1.00;;;;;;5136137;27;20072;-50
2022/03/25 11:20:40;;;;;;;13.27;11.73;;;18.50;1.00;;;;;;5117532;27;20057;-48
2022/03/25 11:23:06;;;;;;;18.42;11.57;;;18.60;1.00;;;;;;5122929;27;20114;-50
2022/03/25 11:25:40;;;;;;;18.60;11.50;;;18.70;1.00;;;;;;5135625;27;20076;-53
2022/03/25 11:28:09;;;;;;;16.08;11.40;;;18.90;1.00;;;;;;5118061;27;20039;-49
2022/03/25 11:30:36;;;;;;;18.42;12.07;;;19.00;1.00;;;;;;5135164;27;20138;-52
2022/03/25 11:33:04;;;;;;;16.70;11.63;;;19.10;1.00;;;;;;5134910;27;20027;-49
2022/03/25 11:35:32;;;;;;;14.50;11.68;;;18.90;1.00;;;;;;5121525;27;20459;-50
2022/03/25 11:38:12;;;;;;;15.23;12.18;;;19.10;1.00;;;;;;5115657;28;20036;-49
2022/03/25 11:40:44;;;;;;;14.68;11.35;;;19.20;1.00;;;;;;5128925;27;20038;-51
2022/03/25 11:43:17;;;;;;;12.63;11.18;;;19.10;1.00;;;;;;5125831;27;20099;-50
2022/03/25 11:45:44;;;;;;;13.57;11.27;;;19.20;1.00;;;;;;5134761;27;20042;-50
2022/03/25 11:48:11;;;;;;;16.15;10.98;;;19.40;1.00;;;;;;5135396;27;20058;-50
2022/03/25 11:50:43;;;;;;;12.63;10.48;;;19.30;1.00;;;;;;5134864;27;20035;-49
2022/03/25 11:53:12;;;;;;;12.10;10.32;;;19.30;1.00;;;;;;5135785;27;20027;-50
2022/03/25 11:55:59;;;;;;;11.02;9.90;;;19.50;1.00;;;;;;5103764;28;20031;-48
2022/03/25 11:58:25;;;;;;;14.13;10.50;;;19.50;1.00;;;;;;5117418;27;20047;-50
2022/03/25 12:00:56;;;;;;;12.93;11.07;;;19.60;1.00;;;;;;5128022;27;20092;-49
2022/03/25 12:03:39;;;;;;;11.32;9.65;;;19.50;1.00;;;;;;5129528;27;20023;-52
2022/03/25 12:06:05;;;;;;;11.95;10.15;;;19.70;1.00;;;;;;5134282;27;20039;-54
2022/03/25 12:08:38;;;;;;;17.15;12.10;;;19.70;1.00;;;;;;5135678;27;20126;-52
2022/03/25 12:11:07;;;;;;;15.57;11.75;;;19.80;1.00;;;;;;5100381;28;20067;-49
2022/03/25 12:13:54;;;;;;;13.32;11.10;;;20.00;1.00;;;;;;5128686;27;20023;-50
2022/03/25 12:16:51;;;;;;;14.32;10.82;;;20.20;1.00;;;;;;5133537;27;20027;-53
2022/03/25 12:19:28;;;;;;;13.82;11.38;;;20.20;1.00;;;;;;5115530;27;20066;-49
2022/03/25 12:21:57;;;;;;;14.00;11.57;;;20.20;1.00;;;;;;5115384;27;20058;-49
2022/03/25 12:24:24;;;;;;;15.52;12.65;;;20.20;1.00;;;;;;5134515;27;20027;-50
2022/03/25 12:26:57;;;;;;;15.77;12.30;;;20.30;1.00;;;;;;5114101;27;20039;-48
2022/03/25 12:29:31;;;;;;;13.48;12.18;;;20.30;1.00;;;;;;5114248;27;20375;-49
2022/03/25 12:32:02;;;;;;;12.50;11.15;;;20.40;1.00;;;;;;5114514;28;20019;-52
2022/03/25 12:35:00;;;;;;;13.07;11.27;;;20.70;1.00;;;;;;5096905;27;20022;-49
2022/03/25 12:37:34;;;;;;;14.13;11.07;;;20.80;1.00;;;;;;5114219;28;20104;-51
2022/03/25 12:40:09;;;;;;;;;;;21.00;1.00;;;;;;5107351;28;20028;-49
2022/03/25 12:42:34;;;;;;;14.48;10.65;;;21.40;1.00;;;;;;5114792;28;20405;-55
2022/03/25 12:45:00;;;;;;;14.75;10.75;;;22.00;1.00;;;;;;5117647;27;20027;-48
2022/03/25 12:47:34;;;;;;;12.07;10.40;;;25.60;1.00;;;;;;5134547;27;20051;-49